TimeEDT,TemperatureF,Dew PointF,Humidity,Sea Level PressureIn,VisibilityMPH,Wind Direction,Wind SpeedMPH,Gust SpeedMPH,PrecipitationIn,Events,Conditions,WindDirDegrees,DateUTC
12:53 AM,59.0,57.0,93,30.11,10.0,Calm,Calm,-,N/A,,Clear,0,2013-07-26 04:53:00
1:53 AM,57.9,55.9,93,30.10,9.0,Calm,Calm,-,N/A,,Clear,0,2013-07-26 05:53:00
2:53 AM,57.0,55.9,96,30.10,8.0,Calm,Calm,-,N/A,,Clear,0,2013-07-26 06:53:00
3:53 AM,57.0,55.0,93,30.08,8.0,Calm,Calm,-,0.01,,Clear,0,2013-07-26 07:53:00
4:53 AM,55.9,55.0,97,30.09,8.0,Calm,Calm,-,N/A,,Clear,0,2013-07-26 08:53:00
5:53 AM,55.0,54.0,96,30.09,6.0,Calm,Calm,-,N/A,,Clear,0,2013-07-26 09:53:00
6:53 AM,55.0,54.0,96,30.09,6.0,Calm,Calm,-,N/A,,Clear,0,2013-07-26 10:53:00
7:53 AM,61.0,57.9,90,30.09,10.0,Calm,Calm,-,N/A,,Clear,0,2013-07-26 11:53:00
8:53 AM,66.0,59.0,78,30.10,10.0,Calm,Calm,-,N/A,,Clear,0,2013-07-26 12:53:00
9:53 AM,70.0,61.0,73,30.11,10.0,Calm,Calm,-,N/A,,Clear,0,2013-07-26 13:53:00
10:53 AM,75.0,57.0,53,30.10,10.0,Variable,3.5,-,N/A,,Clear,0,2013-07-26 14:53:00
11:53 AM,78.1,55.9,46,30.09,10.0,Calm,Calm,-,N/A,,Clear,0,2013-07-26 15:53:00
12:53 PM,78.1,55.0,45,30.07,10.0,Calm,Calm,-,N/A,,Clear,0,2013-07-26 16:53:00
1:53 PM,80.1,55.9,43,30.06,10.0,Calm,Calm,-,N/A,,Clear,0,2013-07-26 17:53:00
2:53 PM,82.0,59.0,45,30.04,10.0,Variable,3.5,-,N/A,,Partly Cloudy,0,2013-07-26 18:53:00
3:53 PM,81.0,57.9,45,30.02,10.0,Calm,Calm,-,N/A,,Clear,0,2013-07-26 19:53:00
4:53 PM,80.1,62.1,54,30.01,10.0,SSW,3.5,-,N/A,,Scattered Clouds,200,2013-07-26 20:53:00
5:53 PM,80.1,60.1,50,30.01,10.0,Variable,6.9,-,N/A,,Clear,0,2013-07-26 21:53:00
6:53 PM,78.1,59.0,52,30.00,10.0,Variable,6.9,-,N/A,,Clear,0,2013-07-26 22:53:00
7:53 PM,75.0,59.0,57,30.00,10.0,SW,3.5,-,N/A,,Clear,220,2013-07-26 23:53:00
8:53 PM,72.0,61.0,68,30.00,10.0,Calm,Calm,-,N/A,,Clear,0,2013-07-27 00:53:00
9:53 PM,68.0,63.0,84,29.99,9.0,Calm,Calm,-,N/A,,Clear,0,2013-07-27 01:53:00
10:53 PM,68.0,63.0,84,29.99,9.0,Calm,Calm,-,N/A,,Clear,0,2013-07-27 02:53:00
11:53 PM,66.9,64.0,90,29.98,8.0,Calm,Calm,-,N/A,,Clear,0,2013-07-27 03:53:00